Архив погоды в Минеральных Водах

Метеограмма Минеральные Воды
Пятница, 27 Апреля
Время местн. Темп Ветер Видим Явления Облачность нижн/средн/верх Атм. давл. Влжн Точка росы ВНГО R Сост. почвы Tg s
Напр Скр Прв ур.ст ур.м изм
09:00 +20.5° В 2 - 20 км - ясно 734 762 -0.7 43% +7.4° более 2.5 км - - - -
06:00 +7.3° З 1 - 20 км - ясно 735 764 +0.3 85% +4.9° более 2.5 км - Сухая (без трещин) - -
03:00 +7.9° Ю-З 1 - 10 км - ясно 735 763 -0.2 81% +4.8° более 2.5 км - - - -
00:00 +14.6° В 2 - 10 км - ясно 735 763 +0.3 60% +7° более 2.5 км - - - -
Четверг, 26 Апреля
Время местн. Темп Ветер Видим Явления Облачность нижн/средн/верх Атм. давл. Влжн Точка росы ВНГО R Сост. почвы Tg s
Напр Скр Прв ур.ст ур.м изм
21:00 +18.3° В 2 - 10 км - ясно 735 763 +0.7 46% +6.6° более 2.5 км - - - -
18:00 +24° В 3 - 20 км - ясно 735 761 0 29% +5.1° более 2.5 км - - - -
15:00 +26.5° В 2 - 20 км - ясно 735 761 -1.1 25% +4.8° более 2.5 км - - - -
12:00 +24.7° В,Ю-В 2 - 20 км - ясно 736 762 -0.8 30% +5.8° более 2.5 км - - - -
09:00 +17.1° З 1 - 20 км - ясно 736 764 +0.1 43% +4.3° более 2.5 км - - - -
06:00 +5.3° З 1 - 20 км - ясно 736 765 +0.2 83% +2.6° более 2.5 км 0 Сухая (без трещин) +5° -
03:00 +5.6° С-З 1 - 10 км - ясно 736 765 -0.2 78% +2° более 2.5 км - - - -
00:00 +7.1° штиль 0 - 10 км - ясно 736 765 +0.1 76% +3.2° более 2.5 км - - - -
Среда, 25 Апреля
Время местн. Темп Ветер Видим Явления Облачность нижн/средн/верх Атм. давл. Влжн Точка росы ВНГО R Сост. почвы Tg s
Напр Скр Прв ур.ст ур.м изм
21:00 +11.7° штиль 0 - 10 км - ясно 736 765 +1.1 60% +4.2° более 2.5 км - - - -
18:00 +20.7° штиль 0 - 20 км - ясно 735 763 -0.2 27% +1° более 2.5 км 0 - - -
15:00 +21.8° З,С-З 1 - 20 км - облачно с прояснениями 735 763 - 22% -0.8° 1.5 км - - - -
12:00 +20.2° В 1 - 20 км - переменная облачность 736 763 -0.8 34% +3.7° более 2.5 км - - - -
09:00 +13° штиль 0 - 20 км - переменная облачность 737 765 -0.2 46% +1.8° более 2.5 км - - - -
06:00 +1.4° З,Ю-З 1 - 20 км - ясно 737 766 +0.5 85% -0.9° более 2.5 км - Сухая (без трещин) - -
03:00 +2.5° штиль 0 - 10 км - ясно 737 766 -0.5 84% более 2.5 км - - - -
00:00 +4.5° штиль 0 - 10 км - ясно 737 766 -0.8 75% +0.5° более 2.5 км - - - -
Вторник, 24 Апреля
Время местн. Темп Ветер Видим Явления Облачность нижн/средн/верх Атм. давл. Влжн Точка росы ВНГО R Сост. почвы Tg s
Напр Скр Прв ур.ст ур.м изм
21:00 +8.6° штиль 0 - 10 км - ясно 738 767 +1 57% +0.6° более 2.5 км - - - -
18:00 +16.6° З 1 - 20 км - ясно 737 765 +0.1 29% -1.5° более 2.5 км - - - -
15:00 +19.1° З 2 - 20 км - переменная облачность 737 764 -0.6 25% -1.6° 1.5 км - - - -
12:00 - З 2 - 20 км - облачно с прояснениями - 762 - - - 2 км - - - -
09:00 +13.5° З 3 - 20 км - облачно с прояснениями 737 765 +1.1 45% +1.8° 1.5 км - - - -
06:00 +7.4° Ю-З 1 - 20 км - облачно с прояснениями 736 765 +0.8 87% +5.3° 1.5 км - Влажная (без луж) - -